Time;durP1;ratioP1;P1;durP2;ratioP2;P2;SDS_P1;SDS_P2;PMS_P1;PMS_P2;Temp;Humidity;BMP_temperature;BMP_pressure;BME280_temperature;BME280_humidity;BME280_pressure;Samples;Min_cycle;Max_cycle;Signal;HPM_P1;HPM_P2
2022/07/09 00:00:24;;;;;;;3.50;1.30;;;19.20;83.40;;;;;;5002946;28;20030;-76
2022/07/09 00:02:49;;;;;;;5.57;1.90;;;19.20;82.50;;;;;;5001668;28;20022;-75
2022/07/09 00:05:15;;;;;;;3.23;1.43;;;19.20;83.20;;;;;;5001322;28;20026;-75
2022/07/09 00:07:41;;;;;;;2.67;1.43;;;19.20;83.60;;;;;;5001768;28;20273;-75
2022/07/09 00:10:07;;;;;;;4.00;2.20;;;19.20;83.70;;;;;;5002883;28;20022;-75
2022/07/09 00:12:33;;;;;;;4.00;1.50;;;19.20;84.70;;;;;;5001782;28;20114;-76
2022/07/09 00:14:58;;;;;;;3.13;1.20;;;19.10;84.50;;;;;;5001452;28;20030;-76
2022/07/09 00:17:25;;;;;;;3.07;1.70;;;19.10;85.40;;;;;;5001777;28;20026;-76
2022/07/09 00:19:52;;;;;;;3.70;1.60;;;19.10;86.40;;;;;;5001722;28;20034;-76
2022/07/09 00:22:17;;;;;;;3.92;1.83;;;19.10;86.40;;;;;;5000185;28;20022;-75
2022/07/09 00:24:43;;;;;;;8.07;2.40;;;19.00;86.00;;;;;;5001194;28;20050;-75
2022/07/09 00:27:09;;;;;;;3.53;1.70;;;19.00;87.10;;;;;;5002955;28;20044;-75
2022/07/09 00:29:35;;;;;;;3.60;1.63;;;19.00;87.10;;;;;;5006307;28;20073;-75
2022/07/09 00:32:00;;;;;;;4.23;1.63;;;19.00;86.80;;;;;;5005303;28;20030;-75
2022/07/09 00:34:26;;;;;;;3.37;1.80;;;19.00;87.40;;;;;;5004900;28;20026;-75
2022/07/09 00:36:52;;;;;;;3.60;1.87;;;18.90;87.60;;;;;;5004848;28;20060;-75
2022/07/09 00:39:18;;;;;;;4.10;1.57;;;18.90;88.40;;;;;;5005057;28;20030;-75
2022/07/09 00:41:43;;;;;;;3.80;2.30;;;18.90;88.00;;;;;;5004914;28;20033;-75
2022/07/09 00:44:09;;;;;;;6.57;2.10;;;18.80;88.90;;;;;;5005999;28;20030;-75
2022/07/09 00:46:35;;;;;;;3.03;1.70;;;18.80;89.20;;;;;;5005035;28;20010;-75
2022/07/09 00:49:03;;;;;;;2.10;1.90;;;18.80;89.40;;;;;;4988771;28;20042;-75
2022/07/09 00:51:30;;;;;;;3.38;1.90;;;18.80;89.80;;;;;;5004702;28;20118;-75
2022/07/09 00:53:55;;;;;;;2.80;1.77;;;18.70;89.30;;;;;;4988497;28;20019;-75
2022/07/09 00:56:21;;;;;;;3.53;2.00;;;18.70;89.00;;;;;;5004809;28;20041;-75
2022/07/09 00:58:47;;;;;;;4.50;1.90;;;18.70;89.00;;;;;;5004888;28;20026;-75
2022/07/09 01:01:13;;;;;;;3.47;2.00;;;18.70;88.90;;;;;;5004796;28;20031;-75
2022/07/09 01:03:38;;;;;;;4.50;2.27;;;18.60;89.10;;;;;;5004377;28;20026;-75
2022/07/09 01:06:04;;;;;;;4.13;2.00;;;18.60;89.00;;;;;;5040690;23;20387;-75
2022/07/09 01:08:30;;;;;;;3.67;2.10;;;18.50;89.40;;;;;;5043920;28;20018;-76
2022/07/09 01:10:56;;;;;;;4.13;2.27;;;18.50;89.40;;;;;;5042977;28;20021;-76
2022/07/09 01:13:22;;;;;;;8.23;2.43;;;18.50;90.10;;;;;;5026270;28;20017;-77
2022/07/09 01:15:47;;;;;;;6.30;2.10;;;18.40;90.20;;;;;;5019930;28;20022;-77
2022/07/09 01:18:13;;;;;;;10.50;2.60;;;18.40;90.20;;;;;;5023265;28;20088;-77
2022/07/09 01:20:39;;;;;;;7.53;2.50;;;18.30;90.80;;;;;;5024184;28;20026;-76
2022/07/09 01:23:05;;;;;;;5.07;2.50;;;18.30;90.60;;;;;;5023087;28;20265;-76
2022/07/09 01:25:39;;;;;;;3.27;2.50;;;18.30;91.00;;;;;;5022903;28;20017;-76
2022/07/09 01:28:06;;;;;;;5.68;2.78;;;18.30;91.20;;;;;;5022875;28;20037;-76
2022/07/09 01:30:33;;;;;;;6.03;2.70;;;18.20;90.90;;;;;;5023011;28;20045;-76
2022/07/09 01:32:58;;;;;;;;;;;18.20;90.90;;;;;;5022980;28;20017;-76
2022/07/09 01:35:24;;;;;;;5.43;2.00;;;18.10;91.20;;;;;;5022693;28;20156;-76
2022/07/09 01:37:50;;;;;;;4.83;2.30;;;18.10;91.30;;;;;;5022829;28;20217;-77
2022/07/09 01:40:16;;;;;;;2.95;2.22;;;18.00;91.80;;;;;;5022428;28;20026;-76
2022/07/09 01:42:42;;;;;;;2.57;2.10;;;18.00;91.60;;;;;;5006070;28;20025;-76
2022/07/09 01:45:08;;;;;;;4.47;2.30;;;18.00;91.80;;;;;;5022466;28;20029;-76
2022/07/09 01:47:34;;;;;;;3.85;2.28;;;18.00;91.80;;;;;;5022579;28;20022;-76
2022/07/09 01:50:00;;;;;;;4.63;2.67;;;18.00;92.20;;;;;;5006235;28;20022;-76
2022/07/09 01:52:26;;;;;;;4.60;2.07;;;18.00;92.40;;;;;;5005934;28;20277;-76
2022/07/09 01:54:52;;;;;;;4.80;2.57;;;18.00;92.20;;;;;;5007045;28;20029;-75
2022/07/09 01:57:17;;;;;;;5.77;2.47;;;18.00;92.20;;;;;;5026755;28;20110;-76
2022/07/09 01:59:43;;;;;;;4.07;2.33;;;18.00;92.80;;;;;;5025997;28;20029;-76
2022/07/09 02:02:09;;;;;;;4.70;2.37;;;17.90;92.50;;;;;;5025001;28;20224;-76
2022/07/09 02:04:35;;;;;;;9.63;3.40;;;17.90;92.60;;;;;;5023537;28;20355;-76
2022/07/09 02:07:00;;;;;;;4.00;2.20;;;17.90;92.70;;;;;;5021992;28;20041;-75
2022/07/09 02:09:26;;;;;;;4.90;2.50;;;17.90;93.00;;;;;;5022340;28;20044;-76
2022/07/09 02:11:52;;;;;;;3.20;2.33;;;18.00;93.00;;;;;;5006252;28;20029;-76
2022/07/09 02:14:18;;;;;;;2.93;1.93;;;17.90;93.10;;;;;;5022872;28;20036;-76
2022/07/09 02:16:43;;;;;;;4.13;2.40;;;18.00;93.00;;;;;;5023014;28;20025;-76
2022/07/09 02:19:10;;;;;;;5.27;2.53;;;18.00;93.00;;;;;;5021906;28;20033;-76
2022/07/09 02:21:35;;;;;;;9.15;2.50;;;18.00;92.90;;;;;;5005189;28;20021;-76
2022/07/09 02:24:01;;;;;;;5.80;2.37;;;18.00;92.90;;;;;;5004997;28;20372;-76
2022/07/09 02:26:28;;;;;;;6.67;2.23;;;18.00;93.00;;;;;;5005382;28;20021;-76
2022/07/09 02:28:55;;;;;;;3.22;2.33;;;18.00;92.90;;;;;;5022008;28;20020;-76
2022/07/09 02:31:20;;;;;;;5.47;2.85;;;18.00;93.00;;;;;;5021821;28;20022;-76
2022/07/09 02:33:46;;;;;;;5.93;2.93;;;17.90;93.00;;;;;;5021504;28;20109;-76
2022/07/09 02:36:12;;;;;;;3.57;2.27;;;17.90;93.50;;;;;;5021657;28;20088;-76
2022/07/09 02:38:38;;;;;;;6.60;2.60;;;17.80;93.50;;;;;;5021816;28;20033;-76
2022/07/09 02:41:04;;;;;;;5.20;2.30;;;17.80;93.40;;;;;;5021220;28;20048;-76
2022/07/09 02:43:30;;;;;;;6.13;2.33;;;17.80;93.30;;;;;;5021263;28;20021;-76
2022/07/09 02:45:55;;;;;;;5.33;2.67;;;17.70;93.90;;;;;;5004773;28;20321;-76
2022/07/09 02:48:22;;;;;;;2.83;2.30;;;17.80;93.80;;;;;;5021415;28;20069;-76
2022/07/09 02:50:52;;;;;;;;;;;17.70;93.80;;;;;;5021176;28;20056;-76
2022/07/09 02:53:18;;;;;;;5.72;2.53;;;17.70;93.60;;;;;;5001700;28;19905;-75
2022/07/09 02:55:44;;;;;;;5.03;2.88;;;17.70;93.80;;;;;;5018159;28;20022;-76
2022/07/09 02:58:10;;;;;;;4.57;2.35;;;17.70;94.10;;;;;;5001811;28;20088;-76
2022/07/09 03:00:39;;;;;;;7.32;2.97;;;17.70;93.80;;;;;;5018102;28;20060;-76
2022/07/09 03:03:05;;;;;;;4.28;2.28;;;17.60;94.20;;;;;;4985724;28;20029;-76
2022/07/09 03:05:31;;;;;;;2.72;2.40;;;17.60;94.30;;;;;;4987468;28;20358;-76
2022/07/09 03:07:57;;;;;;;9.23;2.43;;;17.60;94.50;;;;;;5021210;28;20022;-76
2022/07/09 03:10:23;;;;;;;4.00;2.60;;;17.60;94.50;;;;;;5022415;28;20072;-77
2022/07/09 03:12:48;;;;;;;7.13;3.30;;;17.60;94.60;;;;;;5020989;28;20025;-76
2022/07/09 03:15:16;;;;;;;7.00;2.40;;;17.50;94.60;;;;;;5021154;28;20133;-76
2022/07/09 03:17:43;;;;;;;6.35;2.75;;;17.50;94.80;;;;;;5020900;28;20029;-75
2022/07/09 03:20:10;;;;;;;7.85;2.33;;;17.50;94.70;;;;;;5004215;28;20096;-76
2022/07/09 03:22:35;;;;;;;;;;;17.50;95.20;;;;;;5004674;28;20048;-76
2022/07/09 03:25:02;;;;;;;5.43;2.92;;;17.50;95.20;;;;;;5022054;28;19906;-77
2022/07/09 03:27:28;;;;;;;5.07;2.88;;;17.50;95.40;;;;;;5004846;28;20106;-76
2022/07/09 03:29:54;;;;;;;3.33;2.33;;;17.50;95.60;;;;;;5020986;28;20229;-77
2022/07/09 03:32:19;;;;;;;5.20;2.37;;;17.50;95.10;;;;;;5020893;28;20060;-76
2022/07/09 03:34:45;;;;;;;4.23;2.50;;;17.50;95.00;;;;;;5021164;28;20014;-77
2022/07/09 03:37:11;;;;;;;7.37;2.60;;;17.50;95.00;;;;;;5020964;28;20043;-77
2022/07/09 03:39:36;;;;;;;7.17;2.60;;;17.50;95.50;;;;;;5021359;28;20068;-77
2022/07/09 03:42:03;;;;;;;7.17;2.77;;;17.50;94.80;;;;;;5021358;28;20033;-77
2022/07/09 03:44:28;;;;;;;4.70;2.40;;;17.40;94.90;;;;;;5004348;28;20014;-76
2022/07/09 03:46:54;;;;;;;4.00;2.30;;;17.40;95.10;;;;;;5020825;28;20037;-77
2022/07/09 03:49:20;;;;;;;3.50;2.60;;;17.40;95.30;;;;;;5020768;28;20021;-77
2022/07/09 03:51:46;;;;;;;5.27;2.70;;;17.30;95.50;;;;;;5020750;28;20037;-77
2022/07/09 03:54:11;;;;;;;4.97;2.80;;;17.30;95.50;;;;;;5004367;28;20076;-77
2022/07/09 03:56:37;;;;;;;4.67;3.10;;;17.40;95.30;;;;;;5020967;28;20026;-77
2022/07/09 03:59:03;;;;;;;3.70;2.27;;;17.40;96.00;;;;;;5021412;28;20055;-76
2022/07/09 04:01:28;;;;;;;5.23;2.40;;;17.40;95.70;;;;;;5005772;28;20198;-77
2022/07/09 04:03:56;;;;;;;5.00;2.80;;;17.30;95.90;;;;;;5025192;28;20089;-76
2022/07/09 04:06:25;;;;;;;6.32;3.03;;;17.30;95.80;;;;;;5008545;28;20021;-76
2022/07/09 04:08:51;;;;;;;4.43;2.75;;;17.30;96.00;;;;;;5008926;28;20037;-76
2022/07/09 04:11:16;;;;;;;5.53;2.47;;;17.30;95.90;;;;;;5025049;28;20036;-77
2022/07/09 04:13:42;;;;;;;3.40;2.50;;;17.30;95.90;;;;;;5025046;28;20324;-76
2022/07/09 04:16:08;;;;;;;5.00;2.47;;;17.30;95.90;;;;;;5025100;28;20056;-76
2022/07/09 04:18:37;;;;;;;4.80;2.53;;;17.30;95.80;;;;;;5025266;28;20324;-76
2022/07/09 04:21:03;;;;;;;4.40;2.55;;;17.30;96.40;;;;;;5024898;28;20026;-76
2022/07/09 04:23:28;;;;;;;6.37;2.57;;;17.30;96.20;;;;;;5008504;28;20088;-77
2022/07/09 04:25:54;;;;;;;8.47;3.20;;;17.30;96.30;;;;;;5026140;28;20037;-77
2022/07/09 04:28:20;;;;;;;2.93;2.23;;;17.30;96.40;;;;;;5024911;28;20017;-76
2022/07/09 04:30:46;;;;;;;6.80;2.90;;;17.30;96.30;;;;;;5026033;28;20085;-75
2022/07/09 04:33:12;;;;;;;6.05;3.13;;;17.30;96.30;;;;;;5008282;28;20190;-76
2022/07/09 04:35:38;;;;;;;3.83;2.47;;;17.20;96.30;;;;;;4992146;28;20117;-76
2022/07/09 04:38:04;;;;;;;4.37;2.70;;;17.20;96.30;;;;;;5024596;28;20081;-76
2022/07/09 04:40:30;;;;;;;5.53;2.63;;;17.20;96.30;;;;;;5025871;28;20022;-76
2022/07/09 04:42:55;;;;;;;9.53;2.67;;;17.20;96.30;;;;;;5008063;28;20018;-76
2022/07/09 04:45:21;;;;;;;3.77;2.77;;;17.10;96.30;;;;;;5024607;28;20028;-75
2022/07/09 04:47:47;;;;;;;4.20;2.87;;;17.20;96.20;;;;;;5024618;28;20017;-76
2022/07/09 04:50:13;;;;;;;5.63;2.83;;;17.10;96.20;;;;;;5024620;28;20233;-76
2022/07/09 04:52:39;;;;;;;4.07;2.65;;;17.10;96.30;;;;;;5024374;28;20056;-76
2022/07/09 04:55:06;;;;;;;6.03;3.20;;;17.10;96.40;;;;;;5008057;28;20025;-76
2022/07/09 04:57:31;;;;;;;5.07;2.70;;;17.10;96.40;;;;;;5008210;28;20026;-76
2022/07/09 05:00:00;;;;;;;9.97;3.10;;;17.20;96.40;;;;;;5008049;28;20034;-76
2022/07/09 05:02:27;;;;;;;6.18;2.72;;;17.20;96.40;;;;;;5024292;28;20030;-75
2022/07/09 05:04:52;;;;;;;5.60;3.15;;;17.10;96.40;;;;;;5024078;28;20189;-75
2022/07/09 05:07:18;;;;;;;6.07;2.90;;;17.10;96.40;;;;;;5023979;28;20030;-76
2022/07/09 05:09:44;;;;;;;4.17;3.10;;;17.10;96.60;;;;;;5007964;28;20045;-76
2022/07/09 05:12:12;;;;;;;10.23;3.43;;;17.10;96.60;;;;;;5024264;28;20032;-76
2022/07/09 05:14:38;;;;;;;3.17;2.30;;;17.10;96.80;;;;;;5023732;28;20339;-76
2022/07/09 05:17:05;;;;;;;4.17;2.90;;;17.10;96.80;;;;;;5025378;28;20056;-75
2022/07/09 05:19:31;;;;;;;4.38;2.92;;;17.20;97.30;;;;;;5024296;28;20053;-76
2022/07/09 05:21:57;;;;;;;3.55;2.70;;;17.20;97.30;;;;;;5023920;28;20030;-76
2022/07/09 05:24:22;;;;;;;5.40;3.00;;;17.30;97.40;;;;;;5024842;28;20056;-76
2022/07/09 05:26:48;;;;;;;7.07;2.90;;;17.30;97.30;;;;;;5023935;28;20061;-76
2022/07/09 05:29:14;;;;;;;4.15;2.60;;;17.40;96.90;;;;;;5023975;28;20022;-77
2022/07/09 05:31:40;;;;;;;4.17;2.83;;;17.30;96.80;;;;;;5023987;28;20036;-76
2022/07/09 05:34:07;;;;;;;3.37;2.63;;;17.40;96.70;;;;;;5023946;28;20328;-77
2022/07/09 05:36:33;;;;;;;3.58;3.13;;;17.40;96.60;;;;;;5023979;28;20017;-76
2022/07/09 05:39:00;;;;;;;4.50;2.67;;;17.50;97.40;;;;;;5007623;28;20050;-75
2022/07/09 05:41:26;;;;;;;3.70;2.65;;;17.50;97.20;;;;;;5023560;28;20028;-76
2022/07/09 05:43:52;;;;;;;4.13;2.60;;;17.50;97.20;;;;;;5023291;28;20049;-76
2022/07/09 05:46:18;;;;;;;5.03;2.92;;;17.60;97.70;;;;;;5023464;28;20041;-76
2022/07/09 05:48:44;;;;;;;6.47;2.80;;;17.70;97.50;;;;;;5007332;28;20018;-76
2022/07/09 05:51:10;;;;;;;6.47;2.70;;;17.70;97.50;;;;;;5023288;28;20040;-76
2022/07/09 05:53:36;;;;;;;5.07;2.80;;;17.80;97.70;;;;;;5024504;28;20223;-75
2022/07/09 05:56:01;;;;;;;3.73;2.80;;;17.70;97.10;;;;;;5023562;28;20037;-76
2022/07/09 05:58:27;;;;;;;5.47;2.77;;;17.70;96.70;;;;;;5007450;28;20037;-76
2022/07/09 06:00:53;;;;;;;3.70;2.70;;;17.70;96.30;;;;;;5023536;28;20093;-76
2022/07/09 06:03:19;;;;;;;7.03;3.43;;;17.60;96.30;;;;;;5023358;28;20022;-76
2022/07/09 06:05:44;;;;;;;7.63;2.80;;;17.60;96.80;;;;;;4991568;28;20224;-76
2022/07/09 06:08:10;;;;;;;4.63;3.20;;;17.60;96.60;;;;;;5023552;28;20213;-76
2022/07/09 06:10:36;;;;;;;4.73;2.93;;;17.70;97.00;;;;;;5023497;28;20028;-76
2022/07/09 06:13:02;;;;;;;6.17;3.53;;;17.70;97.80;;;;;;5022775;28;20173;-76
2022/07/09 06:15:27;;;;;;;6.23;2.93;;;17.80;98.30;;;;;;5023052;28;20049;-76
2022/07/09 06:17:53;;;;;;;3.97;3.10;;;17.80;98.10;;;;;;5023075;28;20024;-76
2022/07/09 06:20:19;;;;;;;5.03;3.60;;;17.80;97.70;;;;;;5023037;28;20178;-76
2022/07/09 06:22:46;;;;;;;5.57;3.13;;;17.90;97.40;;;;;;5005970;28;20022;-76
2022/07/09 06:25:11;;;;;;;;;;;17.90;98.10;;;;;;5023036;28;20018;-76
2022/07/09 06:27:37;;;;;;;5.85;2.53;;;17.90;98.20;;;;;;5023245;28;19927;-77
2022/07/09 06:30:04;;;;;;;7.63;3.17;;;18.00;98.10;;;;;;5006608;28;20026;-76
2022/07/09 06:32:29;;;;;;;4.30;2.47;;;18.00;98.50;;;;;;5005258;28;20089;-76
2022/07/09 06:34:55;;;;;;;4.03;2.90;;;18.10;97.90;;;;;;5022417;28;20221;-76
2022/07/09 06:37:21;;;;;;;3.83;3.03;;;18.00;96.90;;;;;;5021609;28;20029;-76
2022/07/09 06:39:48;;;;;;;5.13;2.93;;;18.00;96.20;;;;;;5000965;28;20275;-75
2022/07/09 06:42:15;;;;;;;6.65;3.20;;;17.90;96.30;;;;;;5016679;28;20057;-76
2022/07/09 06:44:40;;;;;;;7.47;2.85;;;17.90;96.80;;;;;;5021410;28;20034;-76
2022/07/09 06:47:06;;;;;;;3.80;3.07;;;17.90;96.70;;;;;;5020332;28;20095;-76
2022/07/09 06:49:32;;;;;;;5.60;2.97;;;17.90;96.60;;;;;;5016780;28;20025;-77
2022/07/09 06:51:59;;;;;;;3.55;2.97;;;18.00;97.50;;;;;;5005541;28;20025;-76
2022/07/09 06:54:24;;;;;;;4.65;2.90;;;18.00;97.80;;;;;;5023003;28;20233;-77
2022/07/09 06:56:50;;;;;;;3.90;2.90;;;18.00;96.80;;;;;;5022234;28;20029;-76
2022/07/09 06:59:18;;;;;;;7.83;3.27;;;18.10;96.70;;;;;;5022345;28;20252;-76
2022/07/09 07:01:44;;;;;;;5.28;3.03;;;18.10;96.70;;;;;;5022241;28;20018;-77
2022/07/09 07:04:14;;;;;;;6.70;3.20;;;18.20;96.00;;;;;;5021569;28;20049;-77
2022/07/09 07:06:41;;;;;;;5.70;3.15;;;18.20;95.90;;;;;;5044172;23;20030;31
2022/07/09 07:09:07;;;;;;;7.28;2.83;;;18.20;95.90;;;;;;4996222;28;20090;-74
2022/07/09 07:11:33;;;;;;;9.27;3.13;;;18.30;96.20;;;;;;5020977;28;20049;-74
2022/07/09 07:13:59;;;;;;;4.93;3.43;;;18.40;96.70;;;;;;5022122;28;20092;-74
2022/07/09 07:16:24;;;;;;;4.00;2.77;;;18.50;97.10;;;;;;5020875;28;20026;-74
2022/07/09 07:18:50;;;;;;;8.07;3.57;;;18.60;97.10;;;;;;5027593;28;20033;-74
2022/07/09 07:21:16;;;;;;;6.30;2.70;;;18.60;95.20;;;;;;5028827;28;20047;-71
2022/07/09 07:23:41;;;;;;;6.10;3.33;;;18.70;95.30;;;;;;5023578;28;20029;-72
2022/07/09 07:26:07;;;;;;;7.13;3.80;;;18.70;95.30;;;;;;5010622;28;20026;-74
2022/07/09 07:28:33;;;;;;;6.20;3.63;;;18.80;95.60;;;;;;5017580;28;20045;-75
2022/07/09 07:30:59;;;;;;;3.53;2.67;;;18.80;94.70;;;;;;5015188;28;20374;-75
2022/07/09 07:33:25;;;;;;;3.70;2.60;;;19.00;95.10;;;;;;5002065;28;20277;-74
2022/07/09 07:35:51;;;;;;;3.87;2.47;;;19.10;94.80;;;;;;5020212;28;20018;-74
2022/07/09 07:38:17;;;;;;;6.63;3.73;;;19.10;94.40;;;;;;5025581;28;20332;-74
2022/07/09 07:40:42;;;;;;;11.03;4.43;;;19.20;94.30;;;;;;5033328;28;20201;-74
2022/07/09 07:43:11;;;;;;;8.17;3.63;;;19.30;94.40;;;;;;5028433;28;20022;-74
2022/07/09 07:45:37;;;;;;;4.30;2.22;;;19.40;94.20;;;;;;5012352;28;20021;-74
2022/07/09 07:48:03;;;;;;;3.90;2.77;;;19.40;94.00;;;;;;5031487;28;20022;-74
2022/07/09 07:50:28;;;;;;;5.93;2.78;;;19.50;93.40;;;;;;4986502;28;20277;-74
2022/07/09 07:52:54;;;;;;;6.77;2.67;;;19.60;93.50;;;;;;5013641;28;20025;-74
2022/07/09 07:55:20;;;;;;;2.90;1.77;;;19.70;93.40;;;;;;5030618;28;20025;-70
2022/07/09 07:57:46;;;;;;;7.43;2.80;;;19.90;93.60;;;;;;5013372;28;20017;-77
2022/07/09 08:00:12;;;;;;;5.10;2.93;;;20.00;93.80;;;;;;5015976;28;20017;-76
2022/07/09 08:02:38;;;;;;;4.20;2.33;;;20.10;92.10;;;;;;5015805;28;20037;-72
2022/07/09 08:05:04;;;;;;;3.83;2.20;;;20.20;92.30;;;;;;5035773;28;20036;-73
2022/07/09 08:07:30;;;;;;;5.15;2.60;;;20.30;92.70;;;;;;5011195;28;20105;-72
2022/07/09 08:09:56;;;;;;;4.33;2.30;;;20.40;92.50;;;;;;5016919;28;20030;-73
2022/07/09 08:12:22;;;;;;;6.53;2.53;;;20.50;91.80;;;;;;4988381;28;20033;-72
2022/07/09 08:14:47;;;;;;;4.40;2.20;;;20.50;91.70;;;;;;5021263;28;20277;-73
2022/07/09 08:17:13;;;;;;;5.60;2.30;;;20.60;91.40;;;;;;5020992;28;20264;-73
2022/07/09 08:19:39;;;;;;;5.77;2.17;;;20.70;91.80;;;;;;5019199;28;20174;-72
2022/07/09 08:22:05;;;;;;;5.33;2.17;;;20.70;90.90;;;;;;5032875;28;20383;-72
2022/07/09 08:24:30;;;;;;;2.80;2.23;;;20.80;90.90;;;;;;5039215;28;20026;-72
2022/07/09 08:26:58;;;;;;;4.97;2.33;;;20.90;90.10;;;;;;5039982;28;20037;-72
2022/07/09 08:29:24;;;;;;;7.72;2.15;;;20.90;89.40;;;;;;5039735;28;20020;-72
2022/07/09 08:31:50;;;;;;;5.03;2.70;;;20.90;89.80;;;;;;5040011;28;20021;-72
2022/07/09 08:34:16;;;;;;;6.63;2.22;;;21.00;90.70;;;;;;5039469;28;20033;-72
2022/07/09 08:36:42;;;;;;;3.83;2.33;;;21.10;91.30;;;;;;5039941;28;20079;-72
2022/07/09 08:39:08;;;;;;;3.87;2.30;;;21.20;90.30;;;;;;5000998;28;20034;-72
2022/07/09 08:41:34;;;;;;;3.70;1.90;;;21.10;87.80;;;;;;5000528;28;20026;-72
2022/07/09 08:43:59;;;;;;;3.17;1.97;;;21.20;86.90;;;;;;5000705;28;20030;-73
2022/07/09 08:46:25;;;;;;;4.17;1.90;;;21.20;87.20;;;;;;4968235;28;20018;-72
2022/07/09 08:48:51;;;;;;;7.53;1.70;;;21.30;89.40;;;;;;5003782;28;20029;-72
2022/07/09 08:51:17;;;;;;;1.83;1.50;;;21.40;90.20;;;;;;4987591;28;20022;-73
2022/07/09 08:53:44;;;;;;;3.75;1.98;;;21.60;86.50;;;;;;5003310;28;20163;-72
2022/07/09 08:56:10;;;;;;;5.53;1.88;;;21.60;85.60;;;;;;4999096;28;20033;-73
2022/07/09 08:58:37;;;;;;;2.78;1.80;;;21.60;86.30;;;;;;5024703;28;20113;-74
2022/07/09 09:01:04;;;;;;;2.85;1.83;;;21.60;85.20;;;;;;5007152;28;20119;-74
2022/07/09 09:03:30;;;;;;;2.30;1.65;;;21.50;83.70;;;;;;5023726;28;20048;-73
2022/07/09 09:06:08;;;;;;;3.67;1.53;;;21.30;84.90;;;;;;4996345;28;20085;-74
2022/07/09 09:08:42;;;;;;;4.13;2.22;;;21.30;85.50;;;;;;5017996;28;20260;-75
2022/07/09 09:11:24;;;;;;;2.85;1.90;;;21.10;86.40;;;;;;5027642;28;20109;-75
2022/07/09 09:13:50;;;;;;;2.78;1.73;;;21.10;87.40;;;;;;5045230;28;20017;-76
2022/07/09 09:16:17;;;;;;;3.67;1.98;;;21.00;86.30;;;;;;5043606;28;20096;-75
2022/07/09 09:18:52;;;;;;;7.20;2.08;;;21.00;86.40;;;;;;5043062;28;20033;-74
2022/07/09 09:21:22;;;;;;;5.70;1.90;;;20.90;85.70;;;;;;5028318;28;20220;-75
2022/07/09 09:23:52;;;;;;;4.65;1.80;;;20.90;86.00;;;;;;5042504;28;20090;-75
2022/07/09 09:26:27;;;;;;;4.50;1.88;;;20.90;87.70;;;;;;5043063;28;20029;-75
2022/07/09 09:28:54;;;;;;;3.17;1.67;;;20.90;88.00;;;;;;5043455;28;20356;-75
2022/07/09 09:31:31;;;;;;;4.88;2.28;;;20.90;87.30;;;;;;5043547;28;20021;-74
2022/07/09 09:34:08;;;;;;;3.10;1.70;;;21.00;86.50;;;;;;5043550;28;20021;-74
2022/07/09 09:36:41;;;;;;;2.72;1.80;;;21.10;87.00;;;;;;5043929;28;20119;-74
2022/07/09 09:39:18;;;;;;;4.28;1.88;;;21.20;88.80;;;;;;4987739;28;20221;-74
2022/07/09 09:41:55;;;;;;;5.25;1.92;;;21.30;86.40;;;;;;5004298;28;20026;-75
2022/07/09 09:44:29;;;;;;;5.00;2.00;;;21.50;85.60;;;;;;5002611;28;20026;-72
2022/07/09 09:46:55;;;;;;;6.22;2.17;;;21.60;83.00;;;;;;5003829;28;20025;-71
2022/07/09 09:49:21;;;;;;;4.43;1.42;;;21.90;83.60;;;;;;5002576;28;20352;-71
2022/07/09 09:51:53;;;;;;;2.78;1.52;;;21.90;81.10;;;;;;5003583;28;20054;-72
2022/07/09 09:54:20;;;;;;;7.50;1.80;;;21.90;80.20;;;;;;5002070;28;20069;-71
2022/07/09 09:56:46;;;;;;;2.75;1.35;;;21.90;81.90;;;;;;5002236;28;20223;-72
2022/07/09 09:59:12;;;;;;;3.35;1.40;;;22.00;82.30;;;;;;5014228;28;20041;-72
2022/07/09 10:01:39;;;;;;;2.53;1.42;;;22.00;81.60;;;;;;5026243;28;20053;-72
2022/07/09 10:04:05;;;;;;;3.10;1.20;;;22.10;77.70;;;;;;5025739;28;20034;-72
2022/07/09 10:06:33;;;;;;;2.13;1.50;;;22.00;77.60;;;;;;5028021;28;20333;-72
2022/07/09 10:09:01;;;;;;;4.07;1.75;;;22.00;79.30;;;;;;5012217;28;20033;-72
2022/07/09 10:11:47;;;;;;;2.65;1.60;;;22.00;79.70;;;;;;5022977;28;20036;-72
2022/07/09 10:14:28;;;;;;;4.40;1.70;;;22.10;80.40;;;;;;5022707;28;20076;-72
2022/07/09 10:16:54;;;;;;;2.65;1.73;;;22.10;78.70;;;;;;5022957;28;20068;-72
2022/07/09 10:19:32;;;;;;;3.30;1.35;;;22.10;77.30;;;;;;5023925;28;20089;-72
2022/07/09 10:21:59;;;;;;;2.22;1.65;;;22.10;78.70;;;;;;5023448;28;20141;-72
2022/07/09 10:24:26;;;;;;;;;;;22.00;77.10;;;;;;5023682;28;20022;-72
2022/07/09 10:26:52;;;;;;;3.80;1.40;;;22.00;77.70;;;;;;5023617;28;20196;-72
2022/07/09 10:29:26;;;;;;;3.27;1.33;;;21.90;78.30;;;;;;5022882;28;20156;-72
2022/07/09 10:31:53;;;;;;;3.47;1.70;;;21.90;81.20;;;;;;5022599;28;20076;-72
2022/07/09 10:34:34;;;;;;;2.45;1.40;;;21.90;79.80;;;;;;5021813;28;20213;-72
2022/07/09 10:37:04;;;;;;;4.88;1.73;;;21.80;80.40;;;;;;5021514;28;20221;-72
2022/07/09 10:39:30;;;;;;;3.92;1.55;;;21.60;79.80;;;;;;4970361;28;20025;-72
2022/07/09 10:42:01;;;;;;;3.30;1.90;;;21.60;79.70;;;;;;5003804;28;20022;-72
2022/07/09 10:44:28;;;;;;;3.45;2.08;;;21.50;80.50;;;;;;4986034;28;20022;-72
2022/07/09 10:46:57;;;;;;;4.05;2.35;;;21.50;81.80;;;;;;5003757;28;20197;-72
2022/07/09 10:49:26;;;;;;;6.10;2.17;;;21.50;83.50;;;;;;5002742;28;20030;-72
2022/07/09 10:51:58;;;;;;;4.13;2.05;;;21.40;83.90;;;;;;5002597;28;20033;-72
2022/07/09 10:54:24;;;;;;;3.63;1.67;;;21.50;82.40;;;;;;5002186;28;20325;-72
2022/07/09 10:56:50;;;;;;;3.55;1.85;;;21.50;83.00;;;;;;5003383;28;20026;-72
2022/07/09 10:59:18;;;;;;;2.78;1.70;;;21.60;84.50;;;;;;5002367;28;20038;-71
2022/07/09 11:01:43;;;;;;;4.70;1.95;;;21.60;81.70;;;;;;5002459;28;20212;-73
2022/07/09 11:04:11;;;;;;;1.97;1.77;;;21.60;83.00;;;;;;5002228;28;20057;-73
2022/07/09 11:06:47;;;;;;;3.28;2.05;;;21.60;83.60;;;;;;5002272;28;20022;-73
2022/07/09 11:09:16;;;;;;;4.40;2.08;;;21.60;81.50;;;;;;5001920;28;20053;-73
2022/07/09 11:11:42;;;;;;;2.78;1.40;;;21.60;81.00;;;;;;5005414;28;20205;-73
2022/07/09 11:14:09;;;;;;;2.80;1.30;;;21.70;80.50;;;;;;5032182;28;20317;-73
2022/07/09 11:16:35;;;;;;;4.53;1.80;;;21.70;77.40;;;;;;5041490;28;20025;-73
2022/07/09 11:19:22;;;;;;;5.57;1.92;;;21.70;78.10;;;;;;5028735;28;20259;-72
2022/07/09 11:21:49;;;;;;;2.83;1.65;;;21.70;77.20;;;;;;5022597;28;20029;-72
2022/07/09 11:24:23;;;;;;;2.55;1.55;;;21.70;78.00;;;;;;4988870;28;20025;-73
2022/07/09 11:26:49;;;;;;;5.43;1.95;;;21.60;77.60;;;;;;5021875;28;20018;-73
2022/07/09 11:29:16;;;;;;;3.47;1.70;;;21.60;78.50;;;;;;5022923;28;20077;-72
2022/07/09 11:31:49;;;;;;;3.03;1.88;;;21.50;78.80;;;;;;5005435;28;20033;-72
2022/07/09 11:34:19;;;;;;;4.15;1.50;;;21.50;79.60;;;;;;5021493;28;20026;-73
2022/07/09 11:36:47;;;;;;;5.43;2.38;;;21.40;81.10;;;;;;5021270;28;20072;-72
2022/07/09 11:39:33;;;;;;;2.58;1.90;;;21.40;81.90;;;;;;5001774;28;20030;-72
2022/07/09 11:42:00;;;;;;;4.82;2.22;;;21.40;81.20;;;;;;5001894;28;20023;-73
2022/07/09 11:44:33;;;;;;;3.85;1.77;;;21.40;80.60;;;;;;4985420;28;20097;-72
2022/07/09 11:47:11;;;;;;;3.67;1.65;;;21.40;80.40;;;;;;5002901;28;20033;-72
2022/07/09 11:49:41;;;;;;;4.35;1.83;;;21.40;81.00;;;;;;5002857;28;20022;-72
2022/07/09 11:52:20;;;;;;;1.60;1.50;;;21.40;84.20;;;;;;5002908;28;20056;-72
2022/07/09 11:55:02;;;;;;;2.33;1.52;;;21.40;80.40;;;;;;4985832;28;20073;-72
2022/07/09 11:57:29;;;;;;;2.65;1.85;;;21.60;81.10;;;;;;5006093;28;20269;-73
2022/07/09 11:59:58;;;;;;;5.45;2.70;;;21.80;80.10;;;;;;4997113;28;20029;-72
2022/07/09 12:02:39;;;;;;;2.90;1.58;;;21.90;78.80;;;;;;5007587;28;20217;-72
2022/07/09 12:05:08;;;;;;;5.40;1.88;;;22.10;75.60;;;;;;5013426;28;20241;-73
2022/07/09 12:07:34;;;;;;;4.07;1.75;;;22.10;75.20;;;;;;5027915;28;20028;-73
2022/07/09 12:10:08;;;;;;;2.85;1.55;;;22.30;75.50;;;;;;5018729;28;20026;-74
2022/07/09 12:12:35;;;;;;;1.83;1.52;;;22.50;76.30;;;;;;5002945;28;20042;-70
2022/07/09 12:15:01;;;;;;;2.75;1.65;;;22.70;76.00;;;;;;5032317;28;20025;-72
2022/07/09 12:17:29;;;;;;;3.13;1.75;;;23.00;74.20;;;;;;5033717;28;20292;-72
2022/07/09 12:19:55;;;;;;;4.25;2.42;;;23.20;74.80;;;;;;5004748;28;20097;-72
2022/07/09 12:22:21;;;;;;;4.72;1.83;;;23.30;73.40;;;;;;5001187;28;20023;-74
2022/07/09 12:24:47;;;;;;;2.00;1.50;;;23.50;74.60;;;;;;5004431;28;20349;-71
2022/07/09 12:27:13;;;;;;;7.82;2.25;;;23.70;75.00;;;;;;5006563;28;20037;-72
2022/07/09 12:29:39;;;;;;;4.28;1.70;;;23.90;73.70;;;;;;5017047;28;20321;-73
2022/07/09 12:32:07;;;;;;;3.35;1.70;;;24.10;70.90;;;;;;5020807;28;20026;-72
2022/07/09 12:34:33;;;;;;;3.38;1.75;;;24.20;72.40;;;;;;5032007;28;20049;-74
2022/07/09 12:36:59;;;;;;;2.47;1.63;;;24.20;72.10;;;;;;5014193;28;20061;-74
2022/07/09 12:39:24;;;;;;;1.70;1.60;;;24.20;69.90;;;;;;4995481;28;20273;-74
2022/07/09 12:41:50;;;;;;;2.28;1.73;;;24.00;70.90;;;;;;5013198;28;20284;-76
2022/07/09 12:44:16;;;;;;;2.27;1.73;;;23.90;73.60;;;;;;5012999;28;20096;-75
2022/07/09 12:46:42;;;;;;;2.20;1.70;;;23.80;71.00;;;;;;5015201;28;20261;-71